Time;durP1;ratioP1;P1;durP2;ratioP2;P2;SDS_P1;SDS_P2;PMS_P1;PMS_P2;Temp;Humidity;BMP_temperature;BMP_pressure;BME280_temperature;BME280_humidity;BME280_pressure;Samples;Min_cycle;Max_cycle;Signal;HPM_P1;HPM_P2
2022/07/31 00:02:50;;;;;;;15.73;9.40;;;;;;;;;;10079160;28;20102;-67
2022/07/31 00:07:46;;;;;;;14.93;9.88;;;;;;;;;;10079979;28;20085;-67
2022/07/31 00:12:42;;;;;;;21.48;10.82;;;;;;;;;;10062784;28;20063;-67
2022/07/31 00:17:39;;;;;;;12.88;8.23;;;;;;;;;;10076194;28;20126;-67
2022/07/31 00:22:35;;;;;;;13.90;9.80;;;;;;;;;;10045426;28;20077;-67
2022/07/31 00:27:32;;;;;;;10.80;8.35;;;;;;;;;;10074269;28;20055;-67
2022/07/31 00:32:28;;;;;;;17.83;9.73;;;;;;;;;;10040266;28;20048;-65
2022/07/31 00:37:24;;;;;;;15.07;9.85;;;;;;;;;;10062333;28;20139;-67
2022/07/31 00:42:21;;;;;;;13.60;8.13;;;;;;;;;;10038139;28;20075;-67
2022/07/31 00:47:18;;;;;;;13.70;8.98;;;;;;;;;;10055561;28;20110;-67
2022/07/31 00:52:20;;;;;;;12.25;8.15;;;;;;;;;;10039011;28;20643;-67
2022/07/31 00:57:17;;;;;;;18.52;9.20;;;;;;;;;;10069753;28;20059;-67
2022/07/31 01:02:13;;;;;;;18.58;10.98;;;;;;;;;;10076797;28;20421;-67
2022/07/31 01:07:09;;;;;;;14.48;10.02;;;;;;;;;;10053754;28;20079;-67
2022/07/31 01:12:08;;;;;;;19.67;12.15;;;;;;;;;;10037139;28;20492;-67
2022/07/31 01:17:05;;;;;;;18.60;11.98;;;;;;;;;;10045304;28;20044;-67
2022/07/31 01:22:21;;;;;;;18.80;10.55;;;;;;;;;;10036681;28;20413;-67
2022/07/31 01:27:36;;;;;;;16.95;9.45;;;;;;;;;;10071556;28;20054;-67
2022/07/31 01:32:49;;;;;;;20.42;10.52;;;;;;;;;;10073604;28;20051;-67
2022/07/31 01:38:03;;;;;;;16.60;9.65;;;;;;;;;;10088463;28;20093;-67
2022/07/31 01:43:21;;;;;;;18.02;10.40;;;;;;;;;;10056490;28;20043;-67
2022/07/31 01:48:17;;;;;;;19.20;11.50;;;;;;;;;;10074200;28;20055;-67
2022/07/31 01:53:18;;;;;;;20.38;9.98;;;;;;;;;;10042963;28;20395;-67
2022/07/31 01:58:16;;;;;;;15.27;9.20;;;;;;;;;;10049778;28;20822;-67
2022/07/31 02:03:13;;;;;;;15.52;9.88;;;;;;;;;;10036891;28;20098;-67
2022/07/31 02:08:13;;;;;;;19.05;11.45;;;;;;;;;;10035382;28;20055;-67
2022/07/31 02:13:11;;;;;;;17.90;10.02;;;;;;;;;;10037317;28;20055;-67
2022/07/31 02:18:09;;;;;;;17.85;12.05;;;;;;;;;;10074474;28;20544;-67
2022/07/31 02:23:05;;;;;;;16.73;10.00;;;;;;;;;;10061259;28;20147;-67
2022/07/31 02:28:04;;;;;;;16.13;10.05;;;;;;;;;;10074351;28;20094;-67
2022/07/31 02:33:02;;;;;;;18.25;10.30;;;;;;;;;;10053360;28;20135;-66
2022/07/31 02:37:59;;;;;;;16.45;10.25;;;;;;;;;;10065588;28;20100;-67
2022/07/31 02:42:56;;;;;;;15.32;9.85;;;;;;;;;;10035195;28;20044;-67
2022/07/31 02:47:53;;;;;;;14.32;7.70;;;;;;;;;;10073322;28;20059;-67
2022/07/31 02:52:49;;;;;;;14.00;8.70;;;;;;;;;;10038407;28;20104;-67
2022/07/31 02:57:47;;;;;;;13.40;7.78;;;;;;;;;;10064122;28;20058;-67
2022/07/31 03:02:43;;;;;;;14.23;7.68;;;;;;;;;;10035111;28;20079;-67
2022/07/31 03:07:40;;;;;;;12.23;9.25;;;;;;;;;;10060886;28;20048;-67
2022/07/31 03:12:38;;;;;;;17.88;9.07;;;;;;;;;;10033575;28;20084;-67
2022/07/31 03:17:36;;;;;;;16.13;9.35;;;;;;;;;;10070096;28;20525;-67
2022/07/31 03:22:36;;;;;;;15.40;9.82;;;;;;;;;;10079269;28;20047;-67
2022/07/31 03:27:32;;;;;;;12.50;9.40;;;;;;;;;;10061581;28;20189;-67
2022/07/31 03:32:29;;;;;;;12.90;9.45;;;;;;;;;;10080353;28;20145;-67
2022/07/31 03:37:25;;;;;;;16.05;10.45;;;;;;;;;;10058192;28;20052;-67
2022/07/31 03:42:22;;;;;;;15.45;10.32;;;;;;;;;;10041115;28;20090;-67
2022/07/31 03:47:19;;;;;;;13.50;9.32;;;;;;;;;;10050501;28;20052;-67
2022/07/31 03:52:15;;;;;;;13.80;9.52;;;;;;;;;;10040553;28;20052;-67
2022/07/31 03:57:11;;;;;;;12.63;9.32;;;;;;;;;;10058535;28;20110;-67
2022/07/31 04:02:09;;;;;;;13.70;9.32;;;;;;;;;;10041065;28;20059;-67
2022/07/31 04:07:08;;;;;;;17.13;9.45;;;;;;;;;;10072456;28;20134;-67
2022/07/31 04:12:04;;;;;;;18.20;9.65;;;;;;;;;;10055416;28;20054;-67
2022/07/31 04:17:01;;;;;;;17.50;9.70;;;;;;;;;;10071680;28;20050;-67
2022/07/31 04:21:58;;;;;;;14.18;8.77;;;;;;;;;;10040154;28;20138;-67
2022/07/31 04:26:55;;;;;;;12.35;8.20;;;;;;;;;;10062424;28;20490;-67
2022/07/31 04:31:51;;;;;;;11.98;8.43;;;;;;;;;;10038013;28;20059;-69
2022/07/31 04:36:47;;;;;;;13.73;8.20;;;;;;;;;;10055332;28;20074;-67
2022/07/31 04:41:43;;;;;;;12.88;8.02;;;;;;;;;;10038931;28;20134;-67
2022/07/31 04:46:42;;;;;;;17.02;10.82;;;;;;;;;;10052299;28;20052;-67
2022/07/31 04:51:38;;;;;;;12.48;10.00;;;;;;;;;;10038958;28;20455;-67
2022/07/31 04:56:36;;;;;;;16.10;10.55;;;;;;;;;;10066063;28;20134;-67
2022/07/31 05:01:33;;;;;;;15.02;9.25;;;;;;;;;;10075827;28;20525;-67
2022/07/31 05:06:33;;;;;;;15.68;10.32;;;;;;;;;;10065008;28;20110;-67
2022/07/31 05:11:29;;;;;;;18.10;11.57;;;;;;;;;;10065122;28;20506;-67
2022/07/31 05:16:27;;;;;;;12.35;8.95;;;;;;;;;;10064283;28;20079;-67
2022/07/31 05:21:25;;;;;;;11.68;9.45;;;;;;;;;;10063076;28;20730;-67
2022/07/31 05:26:22;;;;;;;13.00;8.95;;;;;;;;;;10063364;28;20067;-67
2022/07/31 05:31:19;;;;;;;14.77;9.00;;;;;;;;;;10057701;28;20094;-67
2022/07/31 05:36:16;;;;;;;14.52;8.45;;;;;;;;;;10062157;28;20048;-67
2022/07/31 05:41:13;;;;;;;15.57;10.40;;;;;;;;;;10073038;28;20185;-67
2022/07/31 05:46:12;;;;;;;15.10;9.23;;;;;;;;;;10075184;28;20082;-67
2022/07/31 05:51:09;;;;;;;12.23;7.72;;;;;;;;;;10050281;28;20127;-67
2022/07/31 05:56:06;;;;;;;13.02;9.25;;;;;;;;;;10058658;28;20051;-67
2022/07/31 06:01:02;;;;;;;15.65;9.52;;;;;;;;;;10036135;28;20282;-67
2022/07/31 06:05:59;;;;;;;16.77;10.32;;;;;;;;;;10059005;28;20417;-67
2022/07/31 06:10:55;;;;;;;14.98;10.10;;;;;;;;;;10074994;28;20044;-67
2022/07/31 06:15:51;;;;;;;14.77;8.68;;;;;;;;;;10070350;28;20047;-66
2022/07/31 06:20:48;;;;;;;12.20;7.35;;;;;;;;;;10075097;28;20039;-66
2022/07/31 06:25:44;;;;;;;14.73;9.07;;;;;;;;;;10062744;28;20130;-67
2022/07/31 06:30:42;;;;;;;13.98;7.20;;;;;;;;;;10074265;28;20094;-66
2022/07/31 06:35:39;;;;;;;11.25;6.43;;;;;;;;;;10060555;28;20409;-66
2022/07/31 06:40:35;;;;;;;9.38;5.25;;;;;;;;;;10071477;28;20043;-67
2022/07/31 06:45:31;;;;;;;10.20;5.13;;;;;;;;;;10055257;28;20047;-67
2022/07/31 06:50:47;;;;;;;9.70;4.22;;;;;;;;;;10066803;28;20537;-66
2022/07/31 06:55:47;;;;;;;10.60;4.47;;;;;;;;;;10059780;28;20677;-66
2022/07/31 07:00:43;;;;;;;6.50;4.38;;;;;;;;;;10081048;28;20517;-66
2022/07/31 07:05:40;;;;;;;8.68;5.82;;;;;;;;;;10077785;28;20101;-66
2022/07/31 07:10:40;;;;;;;5.00;3.30;;;;;;;;;;10042215;28;20036;-66
2022/07/31 07:15:36;;;;;;;7.00;3.25;;;;;;;;;;10052964;28;20090;-66
2022/07/31 07:20:33;;;;;;;10.13;4.50;;;;;;;;;;10042000;28;20475;-66
2022/07/31 07:25:29;;;;;;;11.77;5.78;;;;;;;;;;10047008;28;20661;-66
2022/07/31 07:30:27;;;;;;;13.23;7.03;;;;;;;;;;10042025;28;20143;-67
2022/07/31 07:35:24;;;;;;;9.75;6.60;;;;;;;;;;10043287;28;20044;-66
2022/07/31 07:40:20;;;;;;;13.80;8.02;;;;;;;;;;10040810;28;20131;-66
2022/07/31 07:45:16;;;;;;;11.07;5.80;;;;;;;;;;10058289;28;20146;-66
2022/07/31 07:50:14;;;;;;;9.30;5.57;;;;;;;;;;10080122;28;20083;-66
2022/07/31 07:55:11;;;;;;;10.68;4.78;;;;;;;;;;10062383;28;20089;-66
2022/07/31 08:00:09;;;;;;;8.93;4.18;;;;;;;;;;10079830;28;20064;-67
2022/07/31 08:05:06;;;;;;;6.45;3.67;;;;;;;;;;10059799;28;20059;-66
2022/07/31 08:10:03;;;;;;;7.55;4.20;;;;;;;;;;10066471;28;20079;-66
2022/07/31 08:14:59;;;;;;;9.07;3.42;;;;;;;;;;10055784;29;20055;-66
2022/07/31 08:19:56;;;;;;;10.32;4.57;;;;;;;;;;10077937;28;20105;-67
2022/07/31 08:24:52;;;;;;;7.95;3.80;;;;;;;;;;10078415;28;20484;-66
2022/07/31 08:29:49;;;;;;;8.75;4.15;;;;;;;;;;10041499;28;20094;-67
2022/07/31 08:34:46;;;;;;;7.57;3.10;;;;;;;;;;10052621;28;20493;-66
2022/07/31 08:39:42;;;;;;;7.95;3.10;;;;;;;;;;10077721;28;20047;-66
2022/07/31 08:44:39;;;;;;;7.22;3.08;;;;;;;;;;10069306;28;20081;-67
2022/07/31 08:49:38;;;;;;;7.35;3.70;;;;;;;;;;10077521;28;20044;-67
2022/07/31 08:54:35;;;;;;;7.47;3.22;;;;;;;;;;10067740;28;20390;-67
2022/07/31 08:59:31;;;;;;;11.07;3.58;;;;;;;;;;10076024;28;20055;-67
2022/07/31 09:04:28;;;;;;;6.50;3.33;;;;;;;;;;10051063;28;20094;-67
2022/07/31 09:09:24;;;;;;;6.43;3.13;;;;;;;;;;10076456;28;20820;-67
2022/07/31 09:14:46;;;;;;;7.53;2.88;;;;;;;;;;10050027;28;20061;-67
2022/07/31 09:19:44;;;;;;;9.07;2.73;;;;;;;;;;10061056;28;20254;-67
2022/07/31 09:24:50;;;;;;;6.20;3.08;;;;;;;;;;10050948;28;20493;-67
2022/07/31 09:29:48;;;;;;;7.85;3.15;;;;;;;;;;10042527;28;20052;-67
2022/07/31 09:34:44;;;;;;;7.70;3.28;;;;;;;;;;10045960;28;20067;-67
2022/07/31 09:39:47;;;;;;;5.13;2.38;;;;;;;;;;10036603;28;20649;-67
2022/07/31 09:44:48;;;;;;;4.78;3.00;;;;;;;;;;10039023;28;20514;-67
2022/07/31 09:49:50;;;;;;;7.30;2.60;;;;;;;;;;10036271;28;20107;-67
2022/07/31 09:54:47;;;;;;;4.20;2.10;;;;;;;;;;10049584;28;20850;-67
2022/07/31 09:59:43;;;;;;;6.15;2.20;;;;;;;;;;10078526;28;20122;-67
2022/07/31 10:04:41;;;;;;;4.40;2.38;;;;;;;;;;10058213;28;20047;-67
2022/07/31 10:09:38;;;;;;;5.45;2.03;;;;;;;;;;10074748;28;20482;-67
2022/07/31 10:14:38;;;;;;;6.18;2.45;;;;;;;;;;10055859;28;20557;-68
2022/07/31 10:19:36;;;;;;;4.57;2.50;;;;;;;;;;10063654;28;20102;-67
2022/07/31 10:24:34;;;;;;;6.00;3.35;;;;;;;;;;10046884;28;20098;-68
2022/07/31 10:29:32;;;;;;;4.43;2.35;;;;;;;;;;10051229;28;20067;-68
2022/07/31 10:34:28;;;;;;;6.43;2.60;;;;;;;;;;10054131;28;20043;-67
2022/07/31 10:39:30;;;;;;;4.88;2.40;;;;;;;;;;10081745;28;20741;-67
2022/07/31 10:44:30;;;;;;;9.00;3.83;;;;;;;;;;10078726;28;20056;-67
2022/07/31 10:49:43;;;;;;;6.25;3.15;;;;;;;;;;10042496;28;20079;-67
2022/07/31 10:54:41;;;;;;;6.72;3.05;;;;;;;;;;10042512;28;20046;-68
2022/07/31 10:59:37;;;;;;;6.20;3.42;;;;;;;;;;10042157;28;20075;-68
2022/07/31 11:04:39;;;;;;;5.80;2.80;;;;;;;;;;10055111;28;20134;-67
2022/07/31 11:09:36;;;;;;;4.10;2.42;;;;;;;;;;10080719;28;20074;-67
2022/07/31 11:14:47;;;;;;;5.43;2.80;;;;;;;;;;10068887;28;20127;-67
2022/07/31 11:19:43;;;;;;;4.85;2.33;;;;;;;;;;10080698;28;20426;-67
2022/07/31 11:24:39;;;;;;;5.65;2.55;;;;;;;;;;10059986;28;20075;-68
2022/07/31 11:29:37;;;;;;;10.23;2.85;;;;;;;;;;10073199;28;20159;-67
2022/07/31 11:34:54;;;;;;;4.30;2.63;;;;;;;;;;10055333;28;20457;-67
2022/07/31 11:39:51;;;;;;;3.25;2.55;;;;;;;;;;10051208;28;20052;-67
2022/07/31 11:44:48;;;;;;;3.75;2.60;;;;;;;;;;10054752;28;20057;-67
2022/07/31 11:49:44;;;;;;;4.60;3.25;;;;;;;;;;10050340;28;20043;-68
2022/07/31 11:54:44;;;;;;;6.50;3.13;;;;;;;;;;10053976;28;20063;-67
2022/07/31 11:59:40;;;;;;;4.72;3.33;;;;;;;;;;10049160;28;20514;-67
2022/07/31 12:04:44;;;;;;;8.52;3.17;;;;;;;;;;10045745;28;20086;-67
2022/07/31 12:09:41;;;;;;;6.53;3.08;;;;;;;;;;10039265;28;20044;-67
2022/07/31 12:14:57;;;;;;;7.85;2.80;;;;;;;;;;10055315;29;20429;-67
2022/07/31 12:19:53;;;;;;;5.90;3.05;;;;;;;;;;10078425;28;20141;-65
2022/07/31 12:25:00;;;;;;;5.53;2.92;;;;;;;;;;10070878;28;20118;-65
2022/07/31 12:30:16;;;;;;;4.82;2.83;;;;;;;;;;10078084;28;20055;-65
2022/07/31 12:35:13;;;;;;;4.15;2.72;;;;;;;;;;10058345;28;20059;-66
2022/07/31 12:40:19;;;;;;;5.72;2.67;;;;;;;;;;10078123;28;20082;-66
2022/07/31 12:45:26;;;;;;;4.82;2.65;;;;;;;;;;10057103;28;20047;-66
2022/07/31 12:50:23;;;;;;;6.50;2.58;;;;;;;;;;10066595;28;20110;-65
2022/07/31 12:55:21;;;;;;;4.93;2.75;;;;;;;;;;10055676;28;20055;-65
2022/07/31 13:00:22;;;;;;;7.85;3.00;;;;;;;;;;10060278;28;20059;-65
2022/07/31 13:05:19;;;;;;;4.47;2.85;;;;;;;;;;10055601;28;20043;-65
2022/07/31 13:10:15;;;;;;;5.30;3.42;;;;;;;;;;10042164;28;20134;-65
2022/07/31 13:15:22;;;;;;;7.13;3.15;;;;;;;;;;10055716;28;20051;-65
2022/07/31 13:20:18;;;;;;;5.40;3.03;;;;;;;;;;10037563;28;20055;-65
2022/07/31 13:25:15;;;;;;;4.72;3.20;;;;;;;;;;10047362;28;20126;-65
2022/07/31 13:30:12;;;;;;;5.28;3.17;;;;;;;;;;10050161;28;20071;-65
2022/07/31 13:35:09;;;;;;;4.25;2.47;;;;;;;;;;10061717;28;20058;-65
2022/07/31 13:45:39;;;;;;;4.80;3.20;;;;;;;;;;10057792;28;20515;-66
2022/07/31 13:50:36;;;;;;;5.97;3.22;;;;;;;;;;10070341;28;20043;-65
2022/07/31 13:55:32;;;;;;;4.55;2.85;;;;;;;;;;10054830;28;20521;-65
2022/07/31 14:00:29;;;;;;;4.07;2.97;;;;;;;;;;10044595;28;20718;-65
2022/07/31 14:05:26;;;;;;;6.78;3.10;;;;;;;;;;10062523;28;20104;-65
2022/07/31 14:10:23;;;;;;;3.90;3.03;;;;;;;;;;10035666;28;20127;-65
2022/07/31 14:15:19;;;;;;;5.68;3.10;;;;;;;;;;10055605;28;20473;-65
2022/07/31 14:20:16;;;;;;;4.70;3.47;;;;;;;;;;10074648;28;20044;-65
2022/07/31 14:25:12;;;;;;;4.60;3.20;;;;;;;;;;10074316;28;20106;-65
2022/07/31 14:30:09;;;;;;;3.95;3.08;;;;;;;;;;10074089;28;20486;-65
2022/07/31 14:35:06;;;;;;;4.75;2.60;;;;;;;;;;10067737;28;20098;-65
2022/07/31 14:40:04;;;;;;;4.80;2.95;;;;;;;;;;10074642;28;20059;-65
2022/07/31 14:45:01;;;;;;;5.22;2.70;;;;;;;;;;10065559;28;20059;-65
2022/07/31 14:49:58;;;;;;;5.15;3.10;;;;;;;;;;10074694;28;20056;-65
2022/07/31 14:55:05;;;;;;;6.45;3.25;;;;;;;;;;10063355;28;20422;-65
2022/07/31 15:00:02;;;;;;;3.58;2.50;;;;;;;;;;10074253;28;20075;-65
2022/07/31 15:04:58;;;;;;;5.05;3.10;;;;;;;;;;10061553;28;20106;-65
2022/07/31 15:10:15;;;;;;;6.43;2.53;;;;;;;;;;10071727;28;20047;-65
2022/07/31 15:15:11;;;;;;;7.75;3.00;;;;;;;;;;10052775;28;20051;-65
2022/07/31 15:20:08;;;;;;;5.43;3.90;;;;;;;;;;10079221;28;20098;-65
2022/07/31 15:25:04;;;;;;;8.55;4.25;;;;;;;;;;10058064;28;20126;-66
2022/07/31 15:30:00;;;;;;;5.22;3.38;;;;;;;;;;10062681;29;20126;-65
2022/07/31 15:35:04;;;;;;;6.05;3.72;;;;;;;;;;10056219;28;20047;-66
2022/07/31 15:40:01;;;;;;;9.50;4.75;;;;;;;;;;10058901;28;20051;-65
2022/07/31 15:44:59;;;;;;;8.48;4.93;;;;;;;;;;10056364;29;20485;-66
2022/07/31 15:49:55;;;;;;;9.68;5.10;;;;;;;;;;10052668;28;20052;-66
2022/07/31 15:54:52;;;;;;;10.23;4.70;;;;;;;;;;10050713;28;20047;-66
2022/07/31 15:59:49;;;;;;;9.95;5.20;;;;;;;;;;10039946;28;20060;-66
2022/07/31 16:04:46;;;;;;;7.68;5.30;;;;;;;;;;10044796;28;20078;-66
2022/07/31 16:09:49;;;;;;;8.82;4.88;;;;;;;;;;10049943;28;20925;-65
2022/07/31 16:15:06;;;;;;;8.75;6.35;;;;;;;;;;10071653;28;20059;-65
2022/07/31 16:20:07;;;;;;;12.23;6.68;;;;;;;;;;10078396;28;20055;-65
2022/07/31 16:25:05;;;;;;;12.75;6.82;;;;;;;;;;10058835;28;20085;-66
2022/07/31 16:30:01;;;;;;;13.38;7.68;;;;;;;;;;10069531;28;20099;-65
2022/07/31 16:34:58;;;;;;;8.35;6.57;;;;;;;;;;10053837;29;20506;-65
2022/07/31 16:39:58;;;;;;;7.63;6.03;;;;;;;;;;10065072;28;20069;-66
2022/07/31 16:44:55;;;;;;;8.73;6.43;;;;;;;;;;10052893;28;20094;-67
2022/07/31 16:49:51;;;;;;;8.27;6.68;;;;;;;;;;10047793;28;20475;-67
2022/07/31 16:54:48;;;;;;;12.00;6.82;;;;;;;;;;10047161;28;20050;-68
2022/07/31 16:59:44;;;;;;;11.57;7.72;;;;;;;;;;10037948;28;20056;-68
2022/07/31 17:04:52;;;;;;;12.10;7.55;;;;;;;;;;10051862;28;20608;-68
2022/07/31 17:09:49;;;;;;;11.25;7.13;;;;;;;;;;10075969;28;20475;-67
2022/07/31 17:14:47;;;;;;;10.80;8.20;;;;;;;;;;10050693;28;20102;-67
2022/07/31 17:19:44;;;;;;;13.23;8.85;;;;;;;;;;10067344;28;20082;-67
2022/07/31 17:24:43;;;;;;;11.95;9.90;;;;;;;;;;10050139;28;20509;-67
2022/07/31 17:29:39;;;;;;;11.27;9.75;;;;;;;;;;10050005;28;20067;-67
2022/07/31 17:34:36;;;;;;;14.60;10.93;;;;;;;;;;10074971;28;20047;-67
2022/07/31 17:39:32;;;;;;;11.75;9.55;;;;;;;;;;10075084;28;20067;-67
2022/07/31 17:44:29;;;;;;;16.38;10.32;;;;;;;;;;10074956;28;20184;-67
2022/07/31 17:49:26;;;;;;;12.40;8.95;;;;;;;;;;10074994;28;20070;-67
2022/07/31 17:54:23;;;;;;;16.05;11.77;;;;;;;;;;10071308;28;20055;-67
2022/07/31 17:59:19;;;;;;;14.98;13.13;;;;;;;;;;10074802;28;20079;-67
2022/07/31 18:04:15;;;;;;;17.48;13.02;;;;;;;;;;10067805;28;20083;-67
2022/07/31 18:09:13;;;;;;;15.18;12.48;;;;;;;;;;10075001;28;20047;-66
2022/07/31 18:14:09;;;;;;;15.05;12.10;;;;;;;;;;10057343;28;20130;-67
2022/07/31 18:19:06;;;;;;;16.35;12.18;;;;;;;;;;10074558;28;20051;-67
2022/07/31 18:24:03;;;;;;;13.85;12.15;;;;;;;;;;10044578;28;20110;-67
2022/07/31 18:29:00;;;;;;;13.40;11.02;;;;;;;;;;10060724;28;20059;-66
2022/07/31 18:33:57;;;;;;;15.52;12.35;;;;;;;;;;10042605;28;20122;-66
2022/07/31 18:38:53;;;;;;;13.27;11.43;;;;;;;;;;10073689;28;20138;-67
2022/07/31 18:43:49;;;;;;;14.63;12.25;;;;;;;;;;10074398;28;20168;-67
2022/07/31 18:48:46;;;;;;;16.48;12.80;;;;;;;;;;10073505;28;20043;-67
2022/07/31 18:53:49;;;;;;;17.15;13.35;;;;;;;;;;10078239;28;20051;-67
2022/07/31 18:58:46;;;;;;;13.65;12.07;;;;;;;;;;10042464;28;20083;-67
2022/07/31 19:03:42;;;;;;;14.50;13.00;;;;;;;;;;10048270;28;20118;-67
2022/07/31 19:08:38;;;;;;;18.42;14.27;;;;;;;;;;10080797;28;20549;-67
2022/07/31 19:13:35;;;;;;;16.73;14.98;;;;;;;;;;10069070;28;20568;-67
2022/07/31 19:18:31;;;;;;;19.13;16.17;;;;;;;;;;10080972;28;20074;-67
2022/07/31 19:23:27;;;;;;;13.40;10.90;;;;;;;;;;10050973;28;20139;-67
2022/07/31 19:28:24;;;;;;;14.05;10.00;;;;;;;;;;10067871;28;20043;-66
2022/07/31 19:33:22;;;;;;;10.40;8.98;;;;;;;;;;10044535;28;20541;-67
2022/07/31 19:38:18;;;;;;;10.82;9.20;;;;;;;;;;10062166;28;20435;-67
2022/07/31 19:43:14;;;;;;;11.70;10.15;;;;;;;;;;10042670;28;20103;-67
2022/07/31 19:48:15;;;;;;;11.95;9.45;;;;;;;;;;10056241;28;20063;-66
2022/07/31 19:53:12;;;;;;;15.35;10.75;;;;;;;;;;10042190;28;20048;-66
2022/07/31 19:58:08;;;;;;;9.85;8.20;;;;;;;;;;10079250;28;20047;-67
2022/07/31 20:03:04;;;;;;;9.30;8.00;;;;;;;;;;10073462;28;20524;-67
2022/07/31 20:08:00;;;;;;;10.27;8.80;;;;;;;;;;10078874;28;20565;-67
2022/07/31 20:12:57;;;;;;;10.45;8.35;;;;;;;;;;10068524;28;20506;-67
2022/07/31 20:17:53;;;;;;;8.95;6.13;;;;;;;;;;10077865;28;20063;-67
2022/07/31 20:22:49;;;;;;;7.70;6.18;;;;;;;;;;10055359;28;20075;-67
2022/07/31 20:27:46;;;;;;;8.18;6.50;;;;;;;;;;10076582;28;20047;-67
2022/07/31 20:32:42;;;;;;;6.15;4.70;;;;;;;;;;10043490;28;20068;-67
2022/07/31 20:37:44;;;;;;;5.45;4.10;;;;;;;;;;10076179;28;20122;-67
2022/07/31 20:42:40;;;;;;;5.15;4.13;;;;;;;;;;10040094;28;20332;-67
2022/07/31 20:47:37;;;;;;;6.65;4.43;;;;;;;;;;10074620;28;20070;-67
2022/07/31 20:52:33;;;;;;;5.95;4.53;;;;;;;;;;10077546;28;20510;-67
2022/07/31 20:57:30;;;;;;;7.50;4.97;;;;;;;;;;10047770;28;20739;-67
2022/07/31 21:02:26;;;;;;;7.28;4.60;;;;;;;;;;10038215;28;20087;-67
2022/07/31 21:07:22;;;;;;;9.93;6.15;;;;;;;;;;10040414;28;20095;-67
2022/07/31 21:12:18;;;;;;;6.55;5.15;;;;;;;;;;10037404;28;20163;-67
2022/07/31 21:17:15;;;;;;;11.88;5.75;;;;;;;;;;10071281;28;20126;-67
2022/07/31 21:22:11;;;;;;;6.20;5.28;;;;;;;;;;10066443;28;20075;-67
2022/07/31 21:27:09;;;;;;;7.53;5.60;;;;;;;;;;10084891;28;20553;-67
2022/07/31 21:32:06;;;;;;;8.77;6.68;;;;;;;;;;10058581;28;20103;-67
2022/07/31 21:37:03;;;;;;;8.70;6.10;;;;;;;;;;10068785;28;20055;-66
2022/07/31 21:42:01;;;;;;;8.68;6.20;;;;;;;;;;10056728;28;20051;-66
2022/07/31 21:47:00;;;;;;;9.60;7.00;;;;;;;;;;10067933;28;20051;-67
2022/07/31 21:51:59;;;;;;;9.68;7.03;;;;;;;;;;10047860;28;20130;-67
2022/07/31 21:56:55;;;;;;;7.70;6.57;;;;;;;;;;10064197;28;20044;-68
2022/07/31 22:01:51;;;;;;;7.57;6.45;;;;;;;;;;10036696;28;20560;-67
2022/07/31 22:12:12;;;;;;;10.27;7.68;;;;;;;;;;10035959;28;20565;-67
2022/07/31 22:17:08;;;;;;;12.13;9.77;;;;;;;;;;10036577;28;20673;-67
2022/07/31 22:22:08;;;;;;;11.93;9.43;;;;;;;;;;10036307;28;20047;-67
2022/07/31 22:32:19;;;;;;;11.82;10.18;;;;;;;;;;10052246;28;20547;-68
2022/07/31 22:37:15;;;;;;;12.70;10.23;;;;;;;;;;10068498;28;20150;-67
2022/07/31 22:42:12;;;;;;;11.70;9.88;;;;;;;;;;10036523;28;20564;-67
2022/07/31 22:47:08;;;;;;;13.95;11.18;;;;;;;;;;10067410;28;20047;-67
2022/07/31 22:52:05;;;;;;;16.45;13.32;;;;;;;;;;10073905;28;20083;-67
2022/07/31 22:57:02;;;;;;;12.40;10.07;;;;;;;;;;10073465;28;20481;-66
2022/07/31 23:01:59;;;;;;;13.27;10.57;;;;;;;;;;10074125;28;20530;-67
2022/07/31 23:07:00;;;;;;;11.30;10.07;;;;;;;;;;10073409;28;20125;-67
2022/07/31 23:11:56;;;;;;;11.73;9.25;;;;;;;;;;10071110;28;20063;-66
2022/07/31 23:16:52;;;;;;;11.10;9.70;;;;;;;;;;10065563;28;20135;-67
2022/07/31 23:21:49;;;;;;;13.48;10.75;;;;;;;;;;10067370;28;20523;-67
2022/07/31 23:26:45;;;;;;;13.38;11.88;;;;;;;;;;10064177;28;20051;-67
2022/07/31 23:31:41;;;;;;;12.70;11.00;;;;;;;;;;10048188;28;20163;-67
2022/07/31 23:36:38;;;;;;;13.75;10.82;;;;;;;;;;10064811;28;20085;-67
2022/07/31 23:46:49;;;;;;;14.40;11.85;;;;;;;;;;10068126;28;20063;-66
2022/07/31 23:51:45;;;;;;;11.35;9.60;;;;;;;;;;10041213;28;20064;-67
2022/07/31 23:56:41;;;;;;;16.13;12.18;;;;;;;;;;10069807;28;20106;-67
